createdAt,value
2019-03-05T00:01:09.404Z,99.90
2019-03-05T00:03:46.910Z,99.90
2019-03-05T00:06:23.953Z,99.90
2019-03-05T00:09:00.634Z,99.90
2019-03-05T00:11:38.915Z,99.90
2019-03-05T00:14:15.654Z,99.90
2019-03-05T00:16:52.642Z,99.90
2019-03-05T00:19:29.671Z,99.90
2019-03-05T00:22:07.939Z,99.90
2019-03-05T00:25:09.547Z,99.90
2019-03-05T00:28:16.226Z,99.90
2019-03-05T00:31:02.040Z,99.90
2019-03-05T00:34:27.009Z,99.90
2019-03-05T00:37:11.160Z,99.90
2019-03-05T00:40:25.824Z,99.90
2019-03-05T00:43:31.499Z,99.90
2019-03-05T00:46:47.992Z,99.90
2019-03-05T00:50:02.614Z,99.90
2019-03-05T00:53:04.179Z,99.90
2019-03-05T00:56:14.362Z,99.90
2019-03-05T00:59:14.237Z,99.90
2019-03-05T01:02:22.138Z,99.90
2019-03-05T01:05:59.546Z,99.90
2019-03-05T01:08:36.717Z,99.90
2019-03-05T01:11:13.497Z,99.90
2019-03-05T01:13:50.417Z,99.90
2019-03-05T01:16:30.396Z,99.90
2019-03-05T01:19:07.639Z,99.90
2019-03-05T01:21:44.600Z,99.90
2019-03-05T01:24:22.416Z,99.90
2019-03-05T01:26:58.662Z,99.90
2019-03-05T01:29:35.725Z,99.90
2019-03-05T01:32:29.123Z,99.90
2019-03-05T01:35:13.766Z,99.90
2019-03-05T01:37:50.634Z,99.90
2019-03-05T01:40:54.911Z,99.90
2019-03-05T01:43:31.674Z,99.90
2019-03-05T01:46:08.837Z,99.90
2019-03-05T01:48:44.973Z,99.90
2019-03-05T01:51:21.341Z,99.90
2019-03-05T01:53:58.083Z,99.90
2019-03-05T01:56:36.481Z,99.90
2019-03-05T01:59:13.469Z,99.90
2019-03-05T02:01:50.396Z,99.90
2019-03-05T02:04:28.113Z,99.90
2019-03-05T02:07:04.942Z,99.90
2019-03-05T02:09:41.910Z,99.90
2019-03-05T02:12:18.893Z,99.90
2019-03-05T02:14:56.903Z,99.90
2019-03-05T02:17:33.716Z,99.90
2019-03-05T02:20:13.691Z,99.90
2019-03-05T02:23:03.327Z,99.90
2019-03-05T02:26:02.672Z,99.90
2019-03-05T02:29:04.243Z,99.90
2019-03-05T02:32:05.818Z,99.90
2019-03-05T02:35:05.577Z,99.90
2019-03-05T02:38:13.142Z,99.90
2019-03-05T02:41:31.496Z,99.90
2019-03-05T02:45:01.948Z,99.90
2019-03-05T02:48:11.363Z,99.90
2019-03-05T02:51:28.330Z,99.90
2019-03-05T02:54:56.374Z,99.90
2019-03-05T02:57:29.028Z,99.90
2019-03-05T03:00:06.411Z,99.90
2019-03-05T03:03:07.660Z,99.90
2019-03-05T03:06:05.325Z,99.80
2019-03-05T03:08:42.237Z,99.90
2019-03-05T03:11:19.470Z,99.40
2019-03-05T03:13:56.301Z,99.90
2019-03-05T03:16:33.844Z,99.90
2019-03-05T03:19:10.559Z,99.60
2019-03-05T03:21:47.454Z,99.50
2019-03-05T03:24:24.121Z,99.20
2019-03-05T03:27:00.965Z,99.10
2019-03-05T03:29:37.869Z,99.30
2019-03-05T03:32:15.684Z,99.00
2019-03-05T03:34:52.645Z,98.90
2019-03-05T03:37:29.523Z,98.50
2019-03-05T03:40:07.417Z,98.40
2019-03-05T03:42:45.846Z,98.30
2019-03-05T03:45:25.192Z,97.70
2019-03-05T03:48:01.678Z,98.10
2019-03-05T03:50:38.559Z,97.90
2019-03-05T03:53:14.729Z,97.90
2019-03-05T03:55:51.325Z,97.90
2019-03-05T03:58:28.995Z,97.40
2019-03-05T04:01:07.176Z,97.50
2019-03-05T04:03:44.093Z,97.60
2019-03-05T04:06:21.384Z,98.00
2019-03-05T04:08:58.224Z,97.30
2019-03-05T04:11:35.123Z,97.00
2019-03-05T04:14:12.072Z,97.20
2019-03-05T04:16:49.164Z,97.30
2019-03-05T04:19:30.341Z,97.00
2019-03-05T04:22:06.712Z,96.70
2019-03-05T04:24:43.756Z,97.10
2019-03-05T04:27:20.379Z,97.40
2019-03-05T04:29:57.037Z,96.20
2019-03-05T04:32:33.136Z,96.30
2019-03-05T04:35:11.082Z,96.90
2019-03-05T04:37:47.955Z,96.30
2019-03-05T04:40:24.647Z,96.30
2019-03-05T04:43:04.877Z,96.80
2019-03-05T04:46:02.364Z,95.60
2019-03-05T04:48:40.359Z,95.70
2019-03-05T04:51:33.453Z,94.90
2019-03-05T04:54:10.513Z,95.00
2019-03-05T04:56:47.452Z,94.40
2019-03-05T04:59:24.887Z,95.00
2019-03-05T05:02:01.823Z,94.60
2019-03-05T05:04:39.243Z,94.60
2019-03-05T05:07:16.056Z,95.20
2019-03-05T05:09:53.325Z,93.50
2019-03-05T05:12:32.113Z,92.80
2019-03-05T05:15:11.514Z,93.20
2019-03-05T05:17:48.714Z,93.40
2019-03-05T05:20:25.560Z,93.40
2019-03-05T05:23:02.718Z,92.40
2019-03-05T05:25:38.910Z,92.40
2019-03-05T05:28:32.988Z,92.60
2019-03-05T05:31:09.458Z,91.80
2019-03-05T05:33:46.357Z,91.70
2019-03-05T05:36:23.066Z,91.60
2019-03-05T05:38:59.583Z,91.60
2019-03-05T05:41:38.109Z,91.70
2019-03-05T05:44:14.726Z,90.80
2019-03-05T05:46:51.662Z,90.10
2019-03-05T05:49:28.328Z,89.10
2019-03-05T05:52:04.930Z,90.20
2019-03-05T05:54:41.977Z,86.90
2019-03-05T05:57:18.714Z,87.80
2019-03-05T05:59:55.343Z,87.80
2019-03-05T06:02:34.286Z,90.00
2019-03-05T06:05:11.360Z,87.60
2019-03-05T06:07:48.076Z,86.10
2019-03-05T06:10:26.447Z,86.70
2019-03-05T06:13:04.762Z,88.40
2019-03-05T06:15:41.670Z,90.10
2019-03-05T06:18:18.371Z,88.00
2019-03-05T06:20:54.977Z,88.50
2019-03-05T06:23:32.220Z,87.20
2019-03-05T06:26:10.239Z,86.00
2019-03-05T06:29:04.030Z,87.90
2019-03-05T06:31:42.040Z,87.80
2019-03-05T06:34:19.497Z,86.50
2019-03-05T06:37:01.449Z,86.10
2019-03-05T06:39:38.504Z,84.80
2019-03-05T06:42:15.371Z,84.10
2019-03-05T06:44:52.175Z,84.20
2019-03-05T06:47:28.848Z,83.40
2019-03-05T06:50:06.159Z,85.90
2019-03-05T06:52:44.086Z,82.90
2019-03-05T06:55:21.175Z,81.50
2019-03-05T06:57:57.852Z,83.10
2019-03-05T07:00:39.060Z,85.60
2019-03-05T07:03:16.775Z,84.30
2019-03-05T07:06:26.849Z,81.50
2019-03-05T07:09:24.315Z,82.90
2019-03-05T07:12:20.452Z,82.60
2019-03-05T07:15:25.175Z,82.80
2019-03-05T07:21:20.055Z,82.10
2019-03-05T07:24:37.135Z,84.40
2019-03-05T07:27:15.350Z,83.90
2019-03-05T07:29:51.910Z,84.60
2019-03-05T07:32:29.465Z,86.10
2019-03-05T07:35:06.792Z,87.70
2019-03-05T07:37:43.760Z,86.70
2019-03-05T07:40:20.684Z,85.00
2019-03-05T07:42:57.201Z,81.50
2019-03-05T07:45:34.555Z,81.00
2019-03-05T07:48:11.655Z,79.50
2019-03-05T07:50:48.742Z,78.40
2019-03-05T07:53:27.137Z,78.50
2019-03-05T07:56:04.528Z,78.40
2019-03-05T07:58:42.592Z,77.00
2019-03-05T08:01:22.487Z,80.40
2019-03-05T08:04:00.078Z,78.30
2019-03-05T08:06:37.036Z,78.00
2019-03-05T08:09:37.454Z,77.30
2019-03-05T08:12:28.098Z,75.00
2019-03-05T08:15:15.396Z,77.00
2019-03-05T08:17:52.415Z,79.10
2019-03-05T08:20:28.724Z,79.00
2019-03-05T08:23:05.803Z,79.40
2019-03-05T08:25:42.205Z,79.40
2019-03-05T08:28:19.650Z,78.80
2019-03-05T08:30:56.679Z,78.50
2019-03-05T08:33:33.791Z,77.10
2019-03-05T08:36:10.635Z,77.60
2019-03-05T08:38:47.656Z,77.50
2019-03-05T08:41:24.395Z,75.10
2019-03-05T08:44:01.543Z,74.70
2019-03-05T08:46:38.919Z,77.00
2019-03-05T08:49:17.895Z,77.10
2019-03-05T08:51:54.516Z,76.30
2019-03-05T08:54:31.965Z,75.10
2019-03-05T08:57:08.674Z,74.50
2019-03-05T08:59:45.182Z,73.30
2019-03-05T09:02:22.517Z,74.10
2019-03-05T09:04:59.911Z,74.60
2019-03-05T09:07:36.773Z,74.80
2019-03-05T09:10:17.511Z,76.40
2019-03-05T09:12:54.379Z,77.30
2019-03-05T09:15:32.121Z,77.00
2019-03-05T09:18:08.671Z,75.40
2019-03-05T09:21:01.463Z,74.50
2019-03-05T09:23:39.452Z,74.00
2019-03-05T09:26:16.483Z,74.70
2019-03-05T09:28:53.611Z,74.90
2019-03-05T09:31:30.926Z,75.40
2019-03-05T09:34:08.167Z,77.50
2019-03-05T09:36:51.024Z,76.10
2019-03-05T09:39:23.642Z,76.20
2019-03-05T09:42:01.063Z,76.90
2019-03-05T09:44:37.743Z,76.10
2019-03-05T09:47:14.452Z,73.70
2019-03-05T09:49:51.368Z,74.70
2019-03-05T09:52:28.687Z,75.20
2019-03-05T09:55:05.716Z,76.90
2019-03-05T09:57:43.716Z,76.60
2019-03-05T10:00:22.960Z,75.40
2019-03-05T10:03:00.922Z,74.40
2019-03-05T10:05:38.404Z,74.80
2019-03-05T10:08:15.748Z,74.00
2019-03-05T10:10:52.987Z,73.60
2019-03-05T10:13:30.175Z,73.40
2019-03-05T10:16:07.082Z,74.60
2019-03-05T10:18:44.665Z,73.30
2019-03-05T10:21:22.593Z,73.40
2019-03-05T10:24:09.712Z,72.20
2019-03-05T10:26:38.424Z,72.20
2019-03-05T10:29:15.456Z,73.40
2019-03-05T10:31:52.487Z,72.30
2019-03-05T10:34:29.503Z,71.10
2019-03-05T10:37:12.609Z,71.50
2019-03-05T10:39:45.349Z,73.00
2019-03-05T10:42:22.552Z,72.30
2019-03-05T10:44:59.670Z,72.80
2019-03-05T10:47:36.693Z,73.10
2019-03-05T10:50:16.597Z,73.30
2019-03-05T10:52:54.052Z,72.80
2019-03-05T10:55:31.694Z,72.50
2019-03-05T10:58:08.725Z,73.90
2019-03-05T11:00:47.860Z,73.60
2019-03-05T11:03:26.401Z,74.60
2019-03-05T11:06:03.875Z,76.10
2019-03-05T11:08:41.472Z,75.70
2019-03-05T11:11:18.680Z,76.40
2019-03-05T11:13:56.052Z,80.60
2019-03-05T11:16:33.488Z,80.20
2019-03-05T11:19:11.254Z,81.70
2019-03-05T11:21:48.158Z,85.80
2019-03-05T11:24:25.252Z,82.30
2019-03-05T11:27:02.582Z,80.70
2019-03-05T11:29:39.358Z,81.70
2019-03-05T11:32:16.072Z,83.50
2019-03-05T11:34:53.442Z,83.10
2019-03-05T11:37:30.173Z,83.50
2019-03-05T11:40:07.346Z,84.50
2019-03-05T11:42:43.933Z,90.00
2019-03-05T11:45:28.933Z,90.60
2019-03-05T11:48:06.461Z,93.60
2019-03-05T11:50:43.945Z,91.30
2019-03-05T11:53:21.899Z,91.40
2019-03-05T11:55:58.844Z,91.90
2019-03-05T11:58:36.458Z,93.00
2019-03-05T12:01:23.126Z,87.00
2019-03-05T12:04:01.957Z,83.70
2019-03-05T12:06:39.098Z,84.10
2019-03-05T12:09:16.940Z,85.50
2019-03-05T12:11:53.691Z,85.80
2019-03-05T12:14:30.533Z,86.20
2019-03-05T12:17:07.771Z,87.10
2019-03-05T12:19:44.784Z,88.00
2019-03-05T12:22:21.683Z,87.70
2019-03-05T12:25:01.708Z,88.50
2019-03-05T12:27:37.031Z,89.00
2019-03-05T12:30:16.479Z,89.20
2019-03-05T12:32:53.297Z,89.90
2019-03-05T12:35:30.927Z,90.00
2019-03-05T12:38:08.274Z,90.20
2019-03-05T12:40:45.324Z,89.60
2019-03-05T12:43:22.446Z,89.50
2019-03-05T12:46:00.065Z,89.80
2019-03-05T12:48:40.405Z,90.20
2019-03-05T12:51:15.863Z,90.80
2019-03-05T12:53:53.311Z,90.90
2019-03-05T12:56:30.930Z,90.40
2019-03-05T12:59:08.100Z,91.10
2019-03-05T13:01:45.964Z,90.40
2019-03-05T13:04:22.967Z,90.50
2019-03-05T13:07:00.394Z,90.80
2019-03-05T13:09:37.351Z,90.70
2019-03-05T13:12:14.689Z,90.90
2019-03-05T13:14:51.724Z,91.30
2019-03-05T13:17:29.140Z,90.50
2019-03-05T13:20:06.001Z,91.30
2019-03-05T13:22:45.613Z,92.80
2019-03-05T13:25:24.319Z,91.80
2019-03-05T13:28:03.972Z,91.60
2019-03-05T13:30:40.462Z,92.20
2019-03-05T13:33:18.140Z,92.20
2019-03-05T13:35:54.921Z,94.00
2019-03-05T13:38:32.390Z,93.30
2019-03-05T13:41:12.150Z,94.90
2019-03-05T13:43:47.022Z,94.10
2019-03-05T13:46:25.841Z,94.20
2019-03-05T13:53:14.737Z,94.30
2019-03-05T13:56:23.607Z,92.90
2019-03-05T13:59:36.744Z,93.40
2019-03-05T14:02:14.175Z,93.60
2019-03-05T14:05:05.549Z,92.70
2019-03-05T14:08:20.001Z,92.90
2019-03-05T14:10:57.027Z,92.60
2019-03-05T14:13:34.016Z,92.50
2019-03-05T14:16:13.620Z,92.50
2019-03-05T14:18:50.642Z,92.20
2019-03-05T14:21:27.754Z,91.90
2019-03-05T14:24:05.700Z,91.70
2019-03-05T14:26:42.983Z,91.90
2019-03-05T14:29:19.996Z,91.70
2019-03-05T14:31:57.450Z,92.20
2019-03-05T14:34:34.297Z,91.50
2019-03-05T14:37:11.770Z,92.00
2019-03-05T14:39:49.071Z,92.20
2019-03-05T14:42:26.151Z,92.10
2019-03-05T14:45:03.331Z,92.00
2019-03-05T14:47:42.150Z,92.30
2019-03-05T14:50:19.338Z,92.20
2019-03-05T14:52:56.653Z,92.40
2019-03-05T14:55:34.719Z,92.70
2019-03-05T14:58:11.649Z,92.60
2019-03-05T15:00:48.352Z,92.60
2019-03-05T15:03:24.814Z,92.50
2019-03-05T15:06:01.548Z,93.10
2019-03-05T15:08:38.590Z,92.90
2019-03-05T15:11:15.501Z,93.00
2019-03-05T15:13:52.448Z,93.50
2019-03-05T15:16:29.329Z,93.10
2019-03-05T15:19:06.782Z,93.30
2019-03-05T15:21:43.079Z,93.40
2019-03-05T15:24:20.367Z,93.40
2019-03-05T15:26:57.296Z,93.60
2019-03-05T15:29:34.389Z,93.80
2019-03-05T15:32:12.296Z,93.70
2019-03-05T15:34:48.490Z,93.40
2019-03-05T15:37:25.157Z,93.70
2019-03-05T15:40:02.947Z,93.70
2019-03-05T15:42:39.434Z,93.90
2019-03-05T15:45:18.337Z,93.60
2019-03-05T15:47:55.569Z,93.90
2019-03-05T15:50:32.599Z,93.80
2019-03-05T15:53:11.530Z,93.80
2019-03-05T15:55:48.752Z,93.90
2019-03-05T15:58:26.238Z,94.00
2019-03-05T16:01:03.680Z,94.20
2019-03-05T16:03:41.969Z,94.10
2019-03-05T16:06:19.462Z,94.00
2019-03-05T16:08:57.887Z,94.10
2019-03-05T16:11:35.434Z,94.40
2019-03-05T16:14:12.280Z,94.50
2019-03-05T16:16:51.680Z,94.50
2019-03-05T16:19:28.349Z,94.60
2019-03-05T16:22:04.921Z,94.50
2019-03-05T16:24:42.070Z,94.70
2019-03-05T16:27:18.924Z,94.80
2019-03-05T16:29:56.913Z,94.80
2019-03-05T16:32:41.317Z,94.90
2019-03-05T16:35:34.989Z,94.90
2019-03-05T16:38:28.690Z,94.90
2019-03-05T16:41:26.991Z,94.90
2019-03-05T16:44:11.351Z,95.00
2019-03-05T16:47:05.268Z,95.20
2019-03-05T16:50:03.151Z,95.40
2019-03-05T16:53:01.524Z,95.30
2019-03-05T16:55:48.854Z,95.50
2019-03-05T16:58:50.187Z,95.70
2019-03-05T17:01:43.628Z,95.80
2019-03-05T17:04:34.433Z,96.10
2019-03-05T17:07:38.592Z,95.80
2019-03-05T17:10:26.015Z,95.90
2019-03-05T17:13:03.298Z,96.20
2019-03-05T17:15:40.236Z,96.20
2019-03-05T17:18:17.046Z,96.10
2019-03-05T17:20:53.922Z,96.00
2019-03-05T17:23:30.839Z,96.10
2019-03-05T17:26:08.019Z,96.20
2019-03-05T17:28:44.842Z,96.10
2019-03-05T17:31:22.208Z,96.00
2019-03-05T17:33:58.757Z,96.00
2019-03-05T17:36:35.832Z,96.00
2019-03-05T17:39:19.558Z,95.90
2019-03-05T17:41:56.690Z,96.00
2019-03-05T17:44:34.825Z,96.20
2019-03-05T17:47:11.582Z,96.30
2019-03-05T17:49:48.628Z,96.50
2019-03-05T17:52:25.803Z,96.70
2019-03-05T17:55:02.997Z,96.90
2019-03-05T17:57:41.491Z,97.00
2019-03-05T18:00:26.772Z,97.20
2019-03-05T18:03:04.812Z,97.30
2019-03-05T18:05:42.509Z,97.20
2019-03-05T18:08:19.466Z,97.30
2019-03-05T18:10:56.379Z,97.30
2019-03-05T18:13:34.349Z,97.30
2019-03-05T18:16:11.441Z,97.60
2019-03-05T18:18:48.463Z,97.50
2019-03-05T18:21:25.413Z,97.60
2019-03-05T18:24:03.114Z,97.50
2019-03-05T18:26:40.626Z,97.40
2019-03-05T18:29:18.420Z,97.50
2019-03-05T18:31:55.708Z,97.60
2019-03-05T18:34:32.776Z,97.50
2019-03-05T18:37:09.705Z,98.10
2019-03-05T18:39:46.915Z,97.80
2019-03-05T18:42:23.653Z,98.00
2019-03-05T18:45:00.397Z,97.90
2019-03-05T18:47:38.538Z,98.10
2019-03-05T18:50:17.684Z,98.20
2019-03-05T18:52:55.533Z,98.00
2019-03-05T18:55:32.628Z,98.10
2019-03-05T18:58:09.486Z,98.10
2019-03-05T19:00:46.890Z,98.20
2019-03-05T19:03:23.725Z,98.20
2019-03-05T19:06:00.905Z,98.10
2019-03-05T19:08:37.961Z,98.10
2019-03-05T19:11:14.951Z,97.90
2019-03-05T19:13:53.986Z,98.20
2019-03-05T19:16:38.267Z,98.40
2019-03-05T19:19:15.150Z,98.40
2019-03-05T19:21:51.966Z,98.30
2019-03-05T19:24:29.435Z,98.60
2019-03-05T19:27:06.742Z,98.50
2019-03-05T19:29:43.205Z,98.50
2019-03-05T19:32:21.056Z,98.80
2019-03-05T19:34:58.281Z,98.90
2019-03-05T19:37:35.042Z,99.10
2019-03-05T19:40:13.629Z,99.00
2019-03-05T19:42:50.261Z,99.30
2019-03-05T19:45:27.257Z,99.20
2019-03-05T19:48:04.352Z,99.40
2019-03-05T19:50:41.192Z,99.40
2019-03-05T19:53:18.270Z,99.50
2019-03-05T19:55:55.132Z,99.40
2019-03-05T19:58:31.510Z,99.50
2019-03-05T20:01:24.239Z,99.60
2019-03-05T20:04:01.176Z,99.90
2019-03-05T20:06:39.018Z,99.90
2019-03-05T20:09:33.550Z,99.80
2019-03-05T20:12:10.618Z,99.90
2019-03-05T20:14:47.623Z,99.60
2019-03-05T20:17:24.330Z,99.90
2019-03-05T20:20:01.327Z,99.90
2019-03-05T20:22:38.028Z,99.90
2019-03-05T20:25:17.826Z,99.90
2019-03-05T20:27:54.970Z,99.90
2019-03-05T20:30:31.819Z,99.90
2019-03-05T20:33:08.850Z,99.90
2019-03-05T20:35:47.115Z,99.90
2019-03-05T20:38:24.301Z,99.90
2019-03-05T20:41:03.247Z,99.90
2019-03-05T20:43:40.718Z,99.90
2019-03-05T20:46:21.656Z,99.90
2019-03-05T20:48:58.788Z,99.90
2019-03-05T20:51:35.921Z,99.90
2019-03-05T20:54:12.545Z,99.90
2019-03-05T20:56:49.432Z,99.90
2019-03-05T20:59:26.305Z,99.90
2019-03-05T21:02:03.102Z,99.90
2019-03-05T21:04:40.326Z,99.90
2019-03-05T21:07:18.106Z,99.90
2019-03-05T21:09:55.517Z,99.90
2019-03-05T21:12:32.604Z,99.90
2019-03-05T21:15:09.740Z,99.90
2019-03-05T21:17:47.375Z,99.90
2019-03-05T21:20:24.998Z,99.90
2019-03-05T21:23:02.227Z,99.90
2019-03-05T21:25:39.167Z,99.90
2019-03-05T21:28:16.010Z,99.90
2019-03-05T21:30:52.951Z,99.90
2019-03-05T21:33:30.666Z,99.90
2019-03-05T21:36:07.533Z,99.90
2019-03-05T21:38:44.717Z,99.90
2019-03-05T21:41:21.887Z,99.90
2019-03-05T21:43:58.596Z,99.90
2019-03-05T21:46:37.009Z,99.90
2019-03-05T21:49:14.143Z,99.90
2019-03-05T21:51:51.111Z,99.90
2019-03-05T21:54:27.903Z,99.90
2019-03-05T21:57:05.731Z,99.90
2019-03-05T21:59:42.695Z,99.90
2019-03-05T22:02:22.193Z,99.90
2019-03-05T22:04:57.680Z,99.90
2019-03-05T22:07:34.709Z,99.90
2019-03-05T22:10:13.465Z,99.90
2019-03-05T22:12:50.303Z,99.90
2019-03-05T22:15:28.194Z,99.90
2019-03-05T22:18:05.706Z,99.90
2019-03-05T22:20:42.958Z,99.90
2019-03-05T22:23:19.649Z,99.90
2019-03-05T22:25:56.782Z,99.90
2019-03-05T22:28:33.872Z,99.90
2019-03-05T22:31:10.992Z,99.90
2019-03-05T22:33:48.253Z,99.90
2019-03-05T22:36:25.475Z,99.90
2019-03-05T22:39:02.240Z,99.90
2019-03-05T22:41:41.290Z,99.90
2019-03-05T22:44:18.186Z,99.90
2019-03-05T22:46:54.884Z,99.90
2019-03-05T22:49:31.799Z,99.90
2019-03-05T22:52:08.731Z,99.90
2019-03-05T22:54:45.384Z,99.90
2019-03-05T22:57:23.538Z,99.90
2019-03-05T23:00:00.390Z,99.90
2019-03-05T23:02:38.900Z,99.90
2019-03-05T23:05:15.908Z,99.90
2019-03-05T23:07:53.284Z,99.90
2019-03-05T23:10:31.000Z,99.90
2019-03-05T23:13:07.730Z,99.90
2019-03-05T23:15:44.919Z,99.90
2019-03-05T23:18:22.426Z,99.90
2019-03-05T23:20:59.914Z,99.90
2019-03-05T23:23:36.879Z,99.90
2019-03-05T23:26:14.265Z,99.90
2019-03-05T23:28:51.777Z,99.90
2019-03-05T23:31:28.581Z,99.90
2019-03-05T23:34:05.590Z,99.90
2019-03-05T23:36:42.050Z,99.90
2019-03-05T23:39:21.880Z,99.90
2019-03-05T23:41:58.494Z,99.90
2019-03-05T23:44:35.475Z,99.90
2019-03-05T23:47:13.185Z,99.90
2019-03-05T23:49:50.430Z,99.90
2019-03-05T23:52:28.187Z,99.90
2019-03-05T23:55:05.493Z,99.90
2019-03-05T23:57:42.237Z,99.90
